Time;durP1;ratioP1;P1;durP2;ratioP2;P2;SDS_P1;SDS_P2;PMS_P1;PMS_P2;Temp;Humidity;BMP_temperature;BMP_pressure;BME280_temperature;BME280_humidity;BME280_pressure;Samples;Min_cycle;Max_cycle;Signal;HPM_P1;HPM_P2
2021/09/03 00:00:16;;;;;;;22.63;20.23;;;18.00;96.50;;;;;;5075877;28;20043;-59
2021/09/03 00:02:43;;;;;;;23.60;18.98;;;17.90;96.40;;;;;;5075973;28;20074;-55
2021/09/03 00:05:12;;;;;;;21.10;18.90;;;17.90;96.50;;;;;;5077243;28;20025;-57
2021/09/03 00:07:38;;;;;;;21.90;18.67;;;17.90;96.40;;;;;;5074812;28;20033;-53
2021/09/03 00:10:05;;;;;;;20.98;18.77;;;17.90;96.40;;;;;;5076544;28;20097;-56
2021/09/03 00:12:31;;;;;;;19.65;16.58;;;17.80;96.60;;;;;;5077638;28;20075;-56
2021/09/03 00:14:56;;;;;;;18.42;16.52;;;17.70;96.70;;;;;;5079794;28;20066;-58
2021/09/03 00:17:22;;;;;;;20.33;17.00;;;17.70;96.80;;;;;;5083535;28;20056;-54
2021/09/03 00:19:47;;;;;;;20.08;17.33;;;17.60;96.80;;;;;;5082579;28;20025;-57
2021/09/03 00:22:13;;;;;;;17.40;15.55;;;17.60;96.80;;;;;;5079593;28;20032;-59
2021/09/03 00:24:39;;;;;;;17.52;15.68;;;17.60;96.90;;;;;;5075599;28;20380;-55
2021/09/03 00:27:04;;;;;;;18.05;16.15;;;17.60;96.80;;;;;;5076415;28;20376;-58
2021/09/03 00:29:30;;;;;;;17.17;15.38;;;17.60;96.80;;;;;;5074124;28;20115;-56
2021/09/03 00:31:55;;;;;;;16.20;14.50;;;17.60;96.80;;;;;;5075576;28;20036;-57
2021/09/03 00:34:21;;;;;;;15.75;14.23;;;17.60;96.90;;;;;;5076777;28;20090;-57
2021/09/03 00:36:47;;;;;;;16.15;14.55;;;17.50;97.10;;;;;;5078503;28;20039;-57
2021/09/03 00:39:13;;;;;;;17.35;15.55;;;17.50;97.40;;;;;;5083426;28;20039;-55
2021/09/03 00:41:39;;;;;;;17.08;15.27;;;17.50;97.30;;;;;;5079395;28;20036;-55
2021/09/03 00:44:05;;;;;;;18.40;15.07;;;17.50;97.20;;;;;;5078980;28;20115;-57
2021/09/03 00:46:30;;;;;;;17.20;14.63;;;17.50;97.10;;;;;;5079586;28;20071;-57
2021/09/03 00:48:57;;;;;;;18.13;15.40;;;17.50;97.10;;;;;;5081220;28;20021;-59
2021/09/03 00:51:24;;;;;;;16.48;14.85;;;17.50;97.10;;;;;;5081353;28;20024;-59
2021/09/03 00:53:49;;;;;;;17.58;15.68;;;17.50;97.10;;;;;;5088425;28;20032;-58
2021/09/03 00:56:15;;;;;;;16.90;15.20;;;17.50;97.10;;;;;;5087368;28;20081;-58
2021/09/03 00:58:41;;;;;;;18.05;15.70;;;17.40;97.00;;;;;;5073149;28;20054;-58
2021/09/03 01:01:06;;;;;;;16.55;14.95;;;17.40;97.00;;;;;;5087938;28;20119;-59
2021/09/03 01:03:32;;;;;;;17.30;15.43;;;17.40;97.00;;;;;;5085538;28;20094;-56
2021/09/03 01:06:05;;;;;;;16.20;14.40;;;17.40;97.00;;;;;;5089993;28;20487;-57
2021/09/03 01:08:32;;;;;;;17.42;15.52;;;17.40;97.00;;;;;;5082919;28;20488;-59
2021/09/03 01:10:58;;;;;;;16.98;15.13;;;17.40;97.00;;;;;;5081722;28;20510;-61
2021/09/03 01:13:24;;;;;;;17.92;15.73;;;17.30;97.00;;;;;;5083281;28;20024;-58
2021/09/03 01:15:50;;;;;;;17.95;14.77;;;17.30;97.00;;;;;;5081268;28;20033;-56
2021/09/03 01:18:16;;;;;;;16.80;14.40;;;17.20;97.10;;;;;;5082220;28;20028;-57
2021/09/03 01:20:41;;;;;;;18.75;16.05;;;17.20;97.10;;;;;;5083919;28;20032;-55
2021/09/03 01:23:07;;;;;;;16.08;14.40;;;17.20;97.00;;;;;;5083739;28;21360;-57
2021/09/03 01:25:33;;;;;;;17.48;14.73;;;17.20;97.30;;;;;;5083978;28;20025;-56
2021/09/03 01:27:59;;;;;;;31.05;24.10;;;17.10;97.00;;;;;;5083483;28;20043;-55
2021/09/03 01:30:24;;;;;;;39.95;27.67;;;17.10;97.10;;;;;;5094601;28;20046;-56
2021/09/03 01:32:50;;;;;;;26.38;21.15;;;17.10;97.10;;;;;;5092944;28;20028;-57
2021/09/03 01:35:16;;;;;;;20.63;17.83;;;17.10;97.00;;;;;;5093030;28;20502;-58
2021/09/03 01:37:42;;;;;;;19.20;17.20;;;17.00;97.20;;;;;;5093715;28;20043;-56
2021/09/03 01:40:09;;;;;;;17.23;15.43;;;16.90;97.20;;;;;;5093510;28;20020;-58
2021/09/03 01:42:35;;;;;;;18.38;16.20;;;16.80;97.40;;;;;;5056802;28;1060446;-56
2021/09/03 01:45:01;;;;;;;18.83;15.70;;;16.80;97.50;;;;;;5094936;28;20030;-58
2021/09/03 01:47:27;;;;;;;18.60;15.23;;;16.70;97.60;;;;;;5094742;28;20032;-57
2021/09/03 01:49:53;;;;;;;20.65;16.08;;;16.60;97.70;;;;;;5094521;28;20458;-57
2021/09/03 01:52:18;;;;;;;19.88;17.38;;;16.60;97.80;;;;;;5088880;28;20044;-58
2021/09/03 01:54:45;;;;;;;24.17;18.48;;;16.60;97.80;;;;;;5092768;28;20032;-53
2021/09/03 01:57:10;;;;;;;22.25;19.02;;;16.50;98.00;;;;;;5094874;28;20036;-57
2021/09/03 01:59:36;;;;;;;23.45;18.85;;;16.30;98.20;;;;;;5094883;28;20501;-57
2021/09/03 02:02:01;;;;;;;22.40;18.58;;;16.30;98.50;;;;;;5093433;28;20024;-58
2021/09/03 02:04:27;;;;;;;18.42;16.52;;;16.30;98.50;;;;;;5074869;28;20027;-57
2021/09/03 02:06:53;;;;;;;18.85;15.90;;;16.30;98.50;;;;;;5094275;28;20020;-59
2021/09/03 02:09:18;;;;;;;17.42;15.32;;;16.40;98.40;;;;;;5094710;28;20039;-58
2021/09/03 02:11:44;;;;;;;20.75;15.27;;;16.40;98.30;;;;;;5089242;28;20035;-58
2021/09/03 02:14:09;;;;;;;17.48;15.27;;;16.40;98.20;;;;;;5081675;28;20095;-57
2021/09/03 02:16:35;;;;;;;17.55;15.73;;;16.40;98.10;;;;;;5074350;28;20500;-58
2021/09/03 02:19:00;;;;;;;21.52;17.05;;;16.40;98.10;;;;;;5073796;28;20040;-58
2021/09/03 02:21:26;;;;;;;22.83;19.83;;;16.30;98.20;;;;;;5093075;28;20036;-58
2021/09/03 02:23:52;;;;;;;23.92;21.40;;;16.20;98.50;;;;;;5093866;28;20672;-56
2021/09/03 02:26:18;;;;;;;26.33;23.45;;;16.10;98.70;;;;;;5094389;28;20028;-56
2021/09/03 02:28:43;;;;;;;33.10;23.75;;;16.00;98.90;;;;;;5087375;28;20025;-59
2021/09/03 02:31:09;;;;;;;29.25;21.95;;;15.90;99.20;;;;;;5073919;28;20032;-56
2021/09/03 02:33:35;;;;;;;25.27;21.90;;;15.70;99.60;;;;;;5090412;28;20034;-58
2021/09/03 02:36:01;;;;;;;25.75;20.20;;;15.70;99.70;;;;;;5093830;28;20052;-58
2021/09/03 02:38:26;;;;;;;24.80;21.45;;;15.70;99.60;;;;;;5093082;28;20036;-58
2021/09/03 02:40:52;;;;;;;26.75;23.85;;;15.80;99.50;;;;;;5093704;28;20047;-57
2021/09/03 02:43:18;;;;;;;28.92;25.40;;;15.80;99.50;;;;;;5093355;28;20449;-59
2021/09/03 02:45:43;;;;;;;28.65;24.92;;;15.80;99.40;;;;;;5094825;28;20032;-59
2021/09/03 02:48:09;;;;;;;23.38;20.85;;;15.80;99.30;;;;;;5093929;28;20024;-59
2021/09/03 02:50:34;;;;;;;21.88;18.95;;;15.80;99.30;;;;;;5093756;28;20040;-59
2021/09/03 02:53:00;;;;;;;20.65;18.58;;;15.90;99.20;;;;;;5094368;28;20039;-53
2021/09/03 02:55:27;;;;;;;21.23;16.58;;;15.90;99.10;;;;;;5093586;28;20039;-56
2021/09/03 02:57:53;;;;;;;19.98;17.90;;;16.00;98.90;;;;;;5093931;28;20036;-56
2021/09/03 03:00:19;;;;;;;20.65;16.77;;;16.00;98.80;;;;;;5092846;28;20519;-59
2021/09/03 03:02:45;;;;;;;20.55;17.35;;;16.00;98.70;;;;;;5093172;28;20028;-57
2021/09/03 03:05:10;;;;;;;18.45;16.63;;;16.10;98.70;;;;;;5093556;28;20024;-57
2021/09/03 03:07:36;;;;;;;18.73;16.73;;;16.20;98.50;;;;;;5094148;28;20386;-57
2021/09/03 03:10:06;;;;;;;18.08;16.27;;;16.10;98.30;;;;;;5093292;28;20020;-57
2021/09/03 03:12:32;;;;;;;18.63;16.45;;;16.20;98.30;;;;;;5093442;28;20098;-58
2021/09/03 03:14:57;;;;;;;19.50;17.05;;;16.10;98.20;;;;;;5093411;28;20603;-58
2021/09/03 03:17:24;;;;;;;19.25;16.17;;;16.10;98.20;;;;;;5093156;28;20055;-57
2021/09/03 03:19:50;;;;;;;18.15;16.33;;;16.10;98.30;;;;;;5092775;28;20024;-59
2021/09/03 03:22:16;;;;;;;19.17;17.27;;;16.00;98.30;;;;;;5092641;28;20101;-59
2021/09/03 03:24:41;;;;;;;20.52;17.38;;;16.00;98.20;;;;;;5092959;28;20051;-59
2021/09/03 03:27:08;;;;;;;20.50;17.08;;;16.00;98.20;;;;;;5093175;28;20054;-58
2021/09/03 03:29:33;;;;;;;20.63;16.48;;;15.90;98.40;;;;;;5079674;28;20029;-58
2021/09/03 03:31:59;;;;;;;18.80;16.80;;;15.70;98.50;;;;;;5071824;28;20039;-59
2021/09/03 03:34:24;;;;;;;18.45;16.55;;;15.70;98.50;;;;;;5072303;28;20036;-57
2021/09/03 03:36:50;;;;;;;17.38;15.57;;;15.70;98.60;;;;;;5072134;28;20029;-57
2021/09/03 03:39:16;;;;;;;17.98;16.17;;;15.70;98.60;;;;;;5072805;28;20032;-59
2021/09/03 03:41:41;;;;;;;17.30;15.43;;;15.60;98.80;;;;;;5072067;28;20040;-56
2021/09/03 03:44:07;;;;;;;18.67;16.35;;;15.60;98.80;;;;;;5071919;28;20476;-59
2021/09/03 03:46:33;;;;;;;18.65;15.27;;;15.70;98.80;;;;;;5072182;28;20534;-58
2021/09/03 03:48:58;;;;;;;21.25;17.30;;;15.70;98.60;;;;;;5071760;28;20048;-57
2021/09/03 03:51:24;;;;;;;51.88;39.67;;;15.60;98.40;;;;;;5072102;28;20067;-58
2021/09/03 03:53:50;;;;;;;50.40;36.35;;;15.60;98.60;;;;;;5071972;28;20032;-58
2021/09/03 03:56:16;;;;;;;33.40;25.27;;;15.60;98.70;;;;;;5072054;28;20028;-58
2021/09/03 03:58:42;;;;;;;22.88;18.73;;;15.60;98.60;;;;;;5072799;28;20400;-56
2021/09/03 04:01:08;;;;;;;19.08;16.30;;;15.60;98.50;;;;;;5072015;28;20067;-56
2021/09/03 04:03:33;;;;;;;20.52;16.13;;;15.70;98.40;;;;;;5072416;28;20036;-57
2021/09/03 04:05:59;;;;;;;17.33;15.52;;;15.60;98.30;;;;;;5073124;28;20543;-57
2021/09/03 04:08:24;;;;;;;20.05;17.15;;;15.50;98.20;;;;;;5072555;28;20071;-58
2021/09/03 04:10:50;;;;;;;21.15;17.33;;;15.50;98.30;;;;;;5070741;28;20423;-55
2021/09/03 04:13:15;;;;;;;17.30;15.40;;;15.50;98.50;;;;;;5071487;28;20036;-58
2021/09/03 04:15:41;;;;;;;16.90;15.20;;;15.50;98.70;;;;;;5071434;28;20120;-56
2021/09/03 04:18:07;;;;;;;18.05;15.38;;;15.40;98.60;;;;;;5071713;28;20060;-59
2021/09/03 04:20:32;;;;;;;16.83;14.25;;;15.40;98.50;;;;;;5083983;28;20040;-57
2021/09/03 04:22:58;;;;;;;21.52;16.23;;;15.40;98.50;;;;;;5092188;28;20020;-58
2021/09/03 04:25:24;;;;;;;20.15;17.15;;;15.40;98.10;;;;;;5092687;28;20115;-59
2021/09/03 04:27:49;;;;;;;16.33;14.57;;;15.30;98.40;;;;;;5092257;28;20034;-59
2021/09/03 04:30:15;;;;;;;15.48;13.88;;;15.20;98.90;;;;;;5092361;28;20166;-57
2021/09/03 04:32:41;;;;;;;16.40;14.73;;;15.20;98.80;;;;;;5092454;28;20032;-58
2021/09/03 04:35:08;;;;;;;18.35;14.55;;;15.30;98.70;;;;;;5092123;28;20042;-57
2021/09/03 04:37:47;;;;;;;16.90;14.52;;;15.30;98.50;;;;;;5092753;28;20024;-58
2021/09/03 04:40:14;;;;;;;15.40;13.90;;;15.30;98.50;;;;;;5092257;28;20027;-58
2021/09/03 04:42:40;;;;;;;16.40;14.40;;;15.30;98.40;;;;;;5091988;28;20036;-59
2021/09/03 04:45:07;;;;;;;15.95;13.77;;;15.40;98.20;;;;;;5092268;28;20089;-57
2021/09/03 04:47:33;;;;;;;14.43;12.93;;;15.30;98.20;;;;;;5092016;28;20024;-56
2021/09/03 04:49:59;;;;;;;14.35;12.85;;;15.30;98.30;;;;;;5092522;28;20482;-59
2021/09/03 04:52:25;;;;;;;15.48;13.65;;;15.30;98.40;;;;;;5091659;28;20059;-59
2021/09/03 04:54:50;;;;;;;14.27;12.45;;;15.40;98.30;;;;;;5092264;28;20495;-56
2021/09/03 04:57:16;;;;;;;14.13;12.63;;;15.40;98.30;;;;;;5091692;28;20028;-58
2021/09/03 04:59:41;;;;;;;14.73;12.70;;;15.40;98.20;;;;;;5091531;28;20039;-58
2021/09/03 05:02:07;;;;;;;14.93;12.32;;;15.50;98.10;;;;;;5092343;28;20391;-58
2021/09/03 05:04:32;;;;;;;14.88;12.73;;;15.50;98.10;;;;;;5091858;28;20391;-57
2021/09/03 05:06:58;;;;;;;15.35;11.63;;;15.50;98.00;;;;;;5093048;28;20047;-56
2021/09/03 05:09:24;;;;;;;13.98;12.35;;;15.50;98.00;;;;;;5091990;28;20043;-58
2021/09/03 05:11:49;;;;;;;15.00;12.07;;;15.50;98.10;;;;;;5091296;28;20036;-59
2021/09/03 05:14:15;;;;;;;13.00;11.70;;;15.50;98.10;;;;;;5091879;28;20058;-58
2021/09/03 05:16:40;;;;;;;15.02;12.40;;;15.50;98.20;;;;;;5092015;28;20394;-57
2021/09/03 05:19:07;;;;;;;13.38;12.07;;;15.60;98.10;;;;;;5091112;28;20028;-59
2021/09/03 05:21:33;;;;;;;16.48;14.88;;;15.60;98.30;;;;;;5071648;28;20029;-59
2021/09/03 05:23:58;;;;;;;40.67;27.73;;;15.60;98.00;;;;;;5073484;28;20032;-58
2021/09/03 05:26:24;;;;;;;30.73;21.95;;;15.50;98.10;;;;;;5075562;28;20024;-56
2021/09/03 05:28:50;;;;;;;16.88;14.95;;;15.50;98.20;;;;;;5076514;28;20733;-58
2021/09/03 05:31:15;;;;;;;14.65;13.15;;;15.50;98.10;;;;;;5075625;28;20039;-55
2021/09/03 05:33:41;;;;;;;16.80;12.43;;;15.40;98.40;;;;;;5075080;28;20056;-59
2021/09/03 05:36:06;;;;;;;19.75;12.73;;;15.50;98.50;;;;;;5076630;28;20048;-59
2021/09/03 05:38:32;;;;;;;15.43;12.60;;;15.50;98.50;;;;;;5075451;28;20047;-57
2021/09/03 05:40:58;;;;;;;16.38;13.10;;;15.60;98.40;;;;;;5075103;28;20071;-56
2021/09/03 05:43:23;;;;;;;12.57;11.30;;;15.60;98.20;;;;;;5074934;28;20045;-59
2021/09/03 05:45:49;;;;;;;13.07;11.68;;;15.70;98.30;;;;;;5075329;28;20024;-58
2021/09/03 05:48:15;;;;;;;17.58;14.27;;;15.70;98.20;;;;;;5074868;28;20550;-56
2021/09/03 05:50:41;;;;;;;19.65;14.27;;;15.70;98.20;;;;;;5074890;28;20403;-57
2021/09/03 05:53:06;;;;;;;17.45;14.75;;;15.70;98.40;;;;;;5074017;28;20525;-59
2021/09/03 05:55:32;;;;;;;16.55;14.77;;;15.70;98.40;;;;;;5074622;28;20033;-56
2021/09/03 05:57:58;;;;;;;16.63;13.77;;;15.70;98.30;;;;;;5074571;28;20033;-58
2021/09/03 06:00:24;;;;;;;23.85;18.55;;;15.70;98.40;;;;;;5074232;28;20043;-59
2021/09/03 06:02:49;;;;;;;19.42;16.70;;;15.70;98.40;;;;;;5074282;28;20422;-59
2021/09/03 06:05:15;;;;;;;40.70;26.85;;;15.70;98.60;;;;;;5074291;28;20120;-55
2021/09/03 06:07:41;;;;;;;28.13;21.17;;;15.80;98.60;;;;;;5083553;28;20506;-59
2021/09/03 06:10:07;;;;;;;25.45;18.70;;;15.80;98.60;;;;;;5094761;28;20036;-58
2021/09/03 06:12:33;;;;;;;33.03;18.73;;;15.90;98.50;;;;;;5093616;28;20118;-59
2021/09/03 06:14:58;;;;;;;26.80;16.30;;;15.90;98.50;;;;;;5094609;28;20131;-59
2021/09/03 06:17:24;;;;;;;24.30;19.60;;;16.00;98.40;;;;;;5094404;28;20050;-59
2021/09/03 06:19:50;;;;;;;22.42;19.15;;;16.00;98.40;;;;;;5088395;28;20090;-59
2021/09/03 06:22:15;;;;;;;23.25;18.77;;;16.00;98.50;;;;;;5074590;28;20051;-59
2021/09/03 06:24:41;;;;;;;22.08;17.10;;;16.10;98.40;;;;;;5074001;28;20024;-58
2021/09/03 06:27:09;;;;;;;19.38;16.80;;;16.20;98.30;;;;;;5073862;28;20082;-58
2021/09/03 06:29:37;;;;;;;24.23;19.63;;;16.20;98.50;;;;;;5074373;28;20052;-59
2021/09/03 06:32:24;;;;;;;21.30;18.27;;;16.20;98.50;;;;;;5074229;28;20029;-60
2021/09/03 06:34:58;;;;;;;19.80;16.77;;;16.30;98.50;;;;;;5072645;28;20040;-56
2021/09/03 06:37:25;;;;;;;22.20;18.17;;;16.40;98.60;;;;;;5073617;28;20070;-60
2021/09/03 06:39:52;;;;;;;22.08;19.52;;;16.50;98.50;;;;;;5074104;28;20025;-58
2021/09/03 06:42:18;;;;;;;29.02;19.65;;;16.50;98.40;;;;;;5073988;28;20041;-58
2021/09/03 06:44:44;;;;;;;26.98;20.38;;;16.60;98.40;;;;;;5073667;28;20392;-59
2021/09/03 06:47:14;;;;;;;25.02;20.58;;;16.70;98.50;;;;;;5073800;28;20074;-58
2021/09/03 06:49:40;;;;;;;28.38;21.15;;;16.70;98.50;;;;;;5073200;28;20037;-59
2021/09/03 06:52:07;;;;;;;26.90;20.25;;;16.70;98.50;;;;;;5072974;28;20436;-58
2021/09/03 06:54:33;;;;;;;22.80;18.77;;;16.80;98.50;;;;;;5073114;28;20033;-58
2021/09/03 06:56:59;;;;;;;35.25;22.40;;;16.90;98.50;;;;;;5073236;28;20503;-56
2021/09/03 06:59:26;;;;;;;32.65;23.00;;;17.00;98.40;;;;;;5072859;28;20478;-55
2021/09/03 07:01:52;;;;;;;26.55;20.77;;;17.00;98.40;;;;;;5078760;28;20063;-59
2021/09/03 07:04:18;;;;;;;33.05;25.27;;;17.00;98.60;;;;;;5078787;28;20079;-59
2021/09/03 07:06:43;;;;;;;26.77;21.80;;;17.10;98.30;;;;;;5081789;28;20108;-61
2021/09/03 07:09:09;;;;;;;26.85;22.38;;;17.20;98.70;;;;;;5092978;28;20047;-58
2021/09/03 07:11:35;;;;;;;36.92;27.25;;;17.30;98.60;;;;;;5093042;28;20031;-58
2021/09/03 07:14:02;;;;;;;32.22;25.02;;;17.30;98.40;;;;;;5092718;28;20031;-57
2021/09/03 07:16:27;;;;;;;28.15;23.20;;;17.20;99.00;;;;;;5092759;28;20107;-59
2021/09/03 07:18:53;;;;;;;37.17;27.30;;;17.30;98.90;;;;;;5093257;28;20067;-59
2021/09/03 07:21:19;;;;;;;41.22;30.75;;;17.40;98.70;;;;;;5073981;28;20036;-58
2021/09/03 07:23:45;;;;;;;43.58;32.70;;;17.30;99.10;;;;;;5076109;28;20060;-59
2021/09/03 07:26:11;;;;;;;48.20;33.55;;;17.40;98.80;;;;;;5077674;28;20051;-59
2021/09/03 07:28:36;;;;;;;40.47;31.40;;;17.50;98.80;;;;;;5079396;28;20021;-59
2021/09/03 07:31:02;;;;;;;42.38;31.00;;;17.40;99.30;;;;;;5079430;28;20031;-59
2021/09/03 07:33:27;;;;;;;44.30;33.90;;;17.50;99.30;;;;;;5076239;28;20024;-59
2021/09/03 07:35:53;;;;;;;43.08;32.47;;;17.50;99.10;;;;;;5076718;28;20028;-59
2021/09/03 07:38:19;;;;;;;47.08;33.33;;;17.60;99.30;;;;;;5079700;28;20081;-57
2021/09/03 07:40:45;;;;;;;60.13;34.65;;;17.60;99.40;;;;;;5078899;28;20032;-56
2021/09/03 07:43:13;;;;;;;51.47;34.58;;;17.50;99.70;;;;;;5091098;28;20035;-57
2021/09/03 07:45:40;;;;;;;40.72;32.58;;;17.50;99.90;;;;;;5087951;28;20149;-60
2021/09/03 07:48:06;;;;;;;40.22;32.47;;;17.60;99.70;;;;;;5072286;28;20033;-61
2021/09/03 07:50:33;;;;;;;45.45;34.00;;;17.60;99.80;;;;;;5081988;28;20036;-61
2021/09/03 07:53:02;;;;;;;42.92;34.13;;;17.60;99.90;;;;;;5089043;28;20036;-62
2021/09/03 07:55:28;;;;;;;41.20;33.30;;;17.70;99.80;;;;;;5089468;28;20078;-62
2021/09/03 07:57:53;;;;;;;47.05;35.05;;;17.90;99.60;;;;;;5084950;28;20032;-61
2021/09/03 08:00:19;;;;;;;50.78;35.47;;;17.70;99.90;;;;;;5085340;28;20062;-62
2021/09/03 08:02:44;;;;;;;45.25;35.92;;;17.80;99.80;;;;;;5079131;28;20067;-63
2021/09/03 08:05:11;;;;;;;47.33;35.22;;;18.00;99.60;;;;;;5086911;28;20037;-62
2021/09/03 08:07:37;;;;;;;42.58;34.25;;;17.80;99.90;;;;;;5081916;28;20020;-62
2021/09/03 08:10:04;;;;;;;46.55;35.17;;;18.10;99.70;;;;;;5079078;28;20037;-61
2021/09/03 08:12:30;;;;;;;40.42;34.20;;;18.20;99.30;;;;;;5100954;28;20035;-62
2021/09/03 08:14:56;;;;;;;39.03;32.10;;;18.30;99.50;;;;;;5074495;28;20044;-59
2021/09/03 08:17:21;;;;;;;41.08;32.03;;;18.40;99.10;;;;;;5057634;28;20040;-61
2021/09/03 08:19:47;;;;;;;38.35;32.97;;;18.50;98.90;;;;;;5078616;28;20032;-61
2021/09/03 08:22:13;;;;;;;43.85;34.08;;;18.60;98.80;;;;;;5089095;28;20388;-61
2021/09/03 08:24:39;;;;;;;41.85;35.08;;;18.60;98.90;;;;;;5090961;28;20098;-63
2021/09/03 08:27:04;;;;;;;42.45;35.15;;;18.70;98.80;;;;;;5076585;28;20686;-61
2021/09/03 08:29:30;;;;;;;38.72;32.00;;;18.70;99.20;;;;;;5089569;28;20119;-61
2021/09/03 08:31:56;;;;;;;39.17;34.58;;;18.80;99.00;;;;;;5084628;28;20032;-61
2021/09/03 08:34:21;;;;;;;39.90;32.55;;;18.70;99.20;;;;;;5085648;28;20036;-58
2021/09/03 08:36:47;;;;;;;40.22;33.03;;;18.80;99.40;;;;;;5091926;28;20028;-60
2021/09/03 08:39:12;;;;;;;39.80;32.08;;;19.00;98.80;;;;;;5092016;28;20039;-60
2021/09/03 08:41:38;;;;;;;42.38;31.10;;;19.30;98.70;;;;;;5089721;28;20060;-59
2021/09/03 08:44:04;;;;;;;40.13;33.47;;;19.30;98.50;;;;;;5084351;28;20115;-60
2021/09/03 08:46:33;;;;;;;41.97;31.27;;;19.50;98.40;;;;;;5087632;28;20055;-61
2021/09/03 08:49:03;;;;;;;36.88;31.65;;;19.50;98.50;;;;;;5081928;28;20124;-61
2021/09/03 08:51:29;;;;;;;35.10;30.98;;;19.60;98.50;;;;;;5081165;28;20031;-61
2021/09/03 08:53:55;;;;;;;34.00;30.27;;;19.80;98.10;;;;;;5081663;28;20523;-58
2021/09/03 08:56:21;;;;;;;38.80;30.95;;;19.90;97.40;;;;;;5082793;28;20040;-56
2021/09/03 08:58:48;;;;;;;34.00;30.05;;;20.00;97.50;;;;;;5087687;28;20024;-55
2021/09/03 09:01:16;;;;;;;36.17;28.02;;;20.00;97.80;;;;;;5092289;28;20027;-60
2021/09/03 09:03:47;;;;;;;34.63;29.33;;;20.10;97.50;;;;;;5086648;28;20442;-58
2021/09/03 09:06:22;;;;;;;31.27;25.02;;;20.30;97.10;;;;;;5095808;28;20539;-56
2021/09/03 09:08:59;;;;;;;35.25;27.90;;;20.40;96.80;;;;;;5094351;28;20028;-59
2021/09/03 09:11:28;;;;;;;35.22;26.88;;;20.40;96.50;;;;;;5095725;28;20395;-59
2021/09/03 09:13:59;;;;;;;31.48;25.17;;;20.40;96.40;;;;;;5095823;28;20062;-60
2021/09/03 09:16:27;;;;;;;29.02;21.77;;;20.50;96.00;;;;;;5095628;28;20471;-60
2021/09/03 09:18:55;;;;;;;26.70;22.35;;;20.60;95.30;;;;;;5096270;28;20390;-59
2021/09/03 09:21:31;;;;;;;26.05;19.73;;;20.60;95.60;;;;;;5076874;28;20033;-59
2021/09/03 09:23:59;;;;;;;25.15;21.10;;;20.70;94.80;;;;;;5074758;28;20110;-58
2021/09/03 09:26:28;;;;;;;28.00;20.60;;;20.90;94.60;;;;;;5085054;28;20035;-58
2021/09/03 09:28:54;;;;;;;25.05;20.17;;;21.00;94.90;;;;;;5095628;28;20074;-59
2021/09/03 09:31:36;;;;;;;26.08;20.25;;;21.10;94.40;;;;;;5093015;28;20020;-60
2021/09/03 09:34:15;;;;;;;24.58;21.98;;;21.20;94.40;;;;;;5074459;28;20032;-55
2021/09/03 09:36:41;;;;;;;23.45;19.58;;;21.30;94.30;;;;;;5082240;28;20120;-60
2021/09/03 09:39:07;;;;;;;21.65;17.23;;;21.40;94.10;;;;;;5091258;28;20020;-60
2021/09/03 09:41:33;;;;;;;25.13;19.02;;;21.50;93.90;;;;;;5092619;28;20044;-60
2021/09/03 09:43:58;;;;;;;21.13;17.60;;;21.60;92.60;;;;;;5076953;28;20030;-59
2021/09/03 09:46:26;;;;;;;30.63;20.08;;;21.40;93.20;;;;;;5096127;28;20040;-63
2021/09/03 09:49:01;;;;;;;55.75;34.22;;;21.50;93.20;;;;;;5076218;28;20040;-60
2021/09/03 09:51:31;;;;;;;92.32;52.80;;;21.50;93.60;;;;;;5076623;28;20043;-60
2021/09/03 09:54:14;;;;;;;35.80;25.20;;;21.40;93.70;;;;;;5079284;28;20043;-59
2021/09/03 09:56:45;;;;;;;31.20;24.17;;;21.70;93.00;;;;;;5076442;28;20020;-58
2021/09/03 09:59:12;;;;;;;32.17;21.83;;;21.60;92.70;;;;;;5083815;28;20036;-60
2021/09/03 10:01:45;;;;;;;22.17;17.27;;;21.80;92.20;;;;;;5089181;28;20046;-60
2021/09/03 10:04:16;;;;;;;29.40;18.83;;;21.90;92.00;;;;;;5088037;28;20148;-60
2021/09/03 10:06:44;;;;;;;18.77;14.77;;;21.80;92.30;;;;;;5080999;28;20697;-59
2021/09/03 10:09:12;;;;;;;15.55;13.70;;;21.80;92.60;;;;;;5077336;28;20104;-59
2021/09/03 10:11:40;;;;;;;25.65;16.42;;;22.10;92.30;;;;;;5077478;28;20044;-59
2021/09/03 10:14:08;;;;;;;19.10;14.40;;;22.30;91.50;;;;;;5077765;28;20048;-56
2021/09/03 10:16:34;;;;;;;18.35;13.95;;;22.20;91.00;;;;;;5074658;28;20036;-57
2021/09/03 10:19:04;;;;;;;18.88;14.77;;;22.30;91.30;;;;;;5075164;28;20187;-60
2021/09/03 10:21:33;;;;;;;23.23;15.73;;;22.40;90.50;;;;;;5086893;28;20423;-59
2021/09/03 10:24:15;;;;;;;15.48;13.77;;;22.20;90.90;;;;;;5078521;28;20035;-59
2021/09/03 10:26:46;;;;;;;18.77;14.57;;;22.30;91.40;;;;;;5074655;28;20484;-60
2021/09/03 10:29:15;;;;;;;21.13;15.85;;;22.30;90.50;;;;;;5079554;28;20027;-58
2021/09/03 10:32:10;;;;;;;20.10;15.32;;;22.30;90.50;;;;;;5076936;28;20107;-59
2021/09/03 10:34:39;;;;;;;20.27;15.68;;;22.50;90.20;;;;;;5080542;28;20036;-58
2021/09/03 10:37:19;;;;;;;16.42;12.98;;;22.60;90.20;;;;;;5074682;28;20043;-59
2021/09/03 10:39:51;;;;;;;16.75;13.55;;;22.70;90.20;;;;;;5094494;28;20023;-60
2021/09/03 10:42:43;;;;;;;16.80;12.80;;;22.80;89.70;;;;;;5089019;28;20046;-58
2021/09/03 10:45:17;;;;;;;16.92;11.88;;;23.00;88.70;;;;;;5091783;28;20034;-57
2021/09/03 10:48:07;;;;;;;15.32;12.43;;;23.10;88.20;;;;;;5081561;28;20055;-59
2021/09/03 10:50:37;;;;;;;15.80;12.77;;;23.00;88.80;;;;;;5093428;28;20548;-58
2021/09/03 10:53:03;;;;;;;16.38;11.65;;;23.00;88.00;;;;;;5090212;28;20036;-59
2021/09/03 10:56:03;;;;;;;19.60;13.43;;;23.10;88.10;;;;;;5091789;28;20082;-59
2021/09/03 10:58:33;;;;;;;17.23;13.35;;;23.00;87.50;;;;;;5081577;28;20062;-59
2021/09/03 11:03:52;;;;;;;16.70;12.68;;;22.60;89.60;;;;;;5084855;28;20502;-59
2021/09/03 11:06:27;;;;;;;15.25;12.80;;;23.00;89.40;;;;;;5094186;28;20044;-59
2021/09/03 11:09:15;;;;;;;15.55;12.82;;;23.20;87.90;;;;;;5093540;28;20112;-58
2021/09/03 11:11:46;;;;;;;16.63;12.55;;;23.30;88.10;;;;;;5060623;28;20038;-60
2021/09/03 11:14:15;;;;;;;16.00;12.30;;;22.90;89.60;;;;;;5082043;28;20052;-58
2021/09/03 11:16:44;;;;;;;16.23;13.40;;;23.00;89.50;;;;;;5093557;28;20024;-57
2021/09/03 11:19:27;;;;;;;12.95;11.57;;;23.10;88.60;;;;;;5056431;28;20044;-58
2021/09/03 11:22:01;;;;;;;15.43;13.20;;;23.00;88.80;;;;;;5075669;28;20657;-60
2021/09/03 11:24:30;;;;;;;14.07;11.55;;;23.10;88.90;;;;;;5093577;28;20036;-60
2021/09/03 11:26:57;;;;;;;16.63;12.70;;;23.10;88.20;;;;;;5093578;28;20028;-58
2021/09/03 11:29:29;;;;;;;15.15;11.73;;;23.10;86.80;;;;;;5079314;28;20036;-59
2021/09/03 11:31:55;;;;;;;14.95;12.70;;;23.20;87.50;;;;;;5070500;28;20141;-57
2021/09/03 11:34:43;;;;;;;13.90;12.00;;;23.20;88.00;;;;;;5081433;28;20059;-58
2021/09/03 11:37:10;;;;;;;15.63;12.13;;;23.50;87.70;;;;;;5083254;28;20032;-59
2021/09/03 11:39:36;;;;;;;15.70;12.35;;;23.40;87.20;;;;;;5092268;28;20028;-58
2021/09/03 11:42:02;;;;;;;13.25;11.18;;;23.40;86.20;;;;;;5092069;28;20040;-60
2021/09/03 11:44:27;;;;;;;16.80;11.27;;;23.50;86.50;;;;;;5092684;28;20541;-59
2021/09/03 11:46:53;;;;;;;19.35;10.98;;;23.40;86.60;;;;;;5092352;28;20032;-61
2021/09/03 11:49:22;;;;;;;13.60;11.25;;;23.50;86.50;;;;;;5093083;28;20395;-59
2021/09/03 11:52:02;;;;;;;12.13;10.65;;;23.30;86.40;;;;;;5092170;28;20055;-61
2021/09/03 11:54:27;;;;;;;16.00;10.75;;;23.50;85.30;;;;;;5085477;28;20019;-59
2021/09/03 11:56:59;;;;;;;12.60;10.80;;;23.80;85.80;;;;;;5095554;28;20082;-59
2021/09/03 11:59:25;;;;;;;14.73;11.50;;;23.90;85.40;;;;;;5092478;28;20032;-61
2021/09/03 12:02:04;;;;;;;12.68;11.02;;;24.00;84.40;;;;;;5091383;28;20075;-62
2021/09/03 12:04:30;;;;;;;12.02;10.38;;;24.00;83.90;;;;;;5090539;28;20149;-59
2021/09/03 12:06:56;;;;;;;12.45;11.05;;;24.00;84.90;;;;;;5091029;28;20385;-60
2021/09/03 12:09:34;;;;;;;14.50;11.80;;;23.90;84.50;;;;;;5072670;28;20167;-60
2021/09/03 12:12:00;;;;;;;13.35;11.60;;;24.10;83.80;;;;;;5071876;28;20024;-60
2021/09/03 12:14:25;;;;;;;13.02;10.77;;;24.00;83.90;;;;;;5072201;28;20127;-60
2021/09/03 12:16:52;;;;;;;12.93;11.05;;;24.20;83.60;;;;;;5072367;28;20410;-59
2021/09/03 12:19:23;;;;;;;11.85;10.75;;;24.40;82.90;;;;;;5072388;28;20035;-61
2021/09/03 12:21:49;;;;;;;13.00;10.32;;;24.60;83.30;;;;;;5087821;28;20047;-60
2021/09/03 12:24:15;;;;;;;11.20;9.60;;;24.70;82.40;;;;;;5092121;28;20024;-60
2021/09/03 12:26:52;;;;;;;11.85;10.57;;;24.80;82.60;;;;;;5092757;28;20056;-59
2021/09/03 12:29:21;;;;;;;16.95;10.88;;;25.10;82.40;;;;;;5092481;28;20479;-59